Skip to main content

NOAA/GLERL Met Station at Muskegon, MI

Previous 3 Hours (2 minute increments)
See also Previous 5 Days (top of hour)
Jump down to Data
Switch to [English][Metric]
Zoom: Click and drag, Pan: shift-click and drag, Unzoom: double-click, Unzoom All






See also 1-day windrose plot


NOAA/GLERL Met Station at Muskegon, MI

Previous 3 Hours (2 minute increments)
See also Previous 5 Days (top of hour only)
Jump up to Graphs
Switch to [English][Metric]
                  Wind  Wind  Wind   Air   Dew   Rel     Sta   PAR
                   Spd   Gst   Dir  Temp    Pt   Hum    Pres uE/m2/
YYYY-MM-DD   EST   m/s   m/s   deg     C     C     %      mb   sec
2018-02-22 05:50   2.9   3.6    85  -3.6  -6.8  78.5 1014.50     2
2018-02-22 05:48   3.2   3.9    85  -3.6  -6.8  78.5 1014.50     2
2018-02-22 05:46   2.9   4.1    85  -3.6  -6.8  78.6 1014.50     2
2018-02-22 05:44   3.0   3.6    79  -3.6  -6.8  78.6 1014.50     2
2018-02-22 05:42   2.6   3.6    87  -3.7  -6.9  78.5 1014.50     2
2018-02-22 05:40   3.1   4.3    78  -3.7  -6.9  78.4 1014.30     2
2018-02-22 05:38   3.1   4.2    84  -3.7  -6.9  78.3 1014.20     2
2018-02-22 05:36   2.8   3.8    87  -3.7  -6.9  78.3 1014.20     2
2018-02-22 05:34   3.7   4.2    90  -3.7  -7.0  78.2 1014.20     2
2018-02-22 05:32   3.5   4.2    90  -3.7  -6.9  78.3 1014.30     2
2018-02-22 05:30   4.0   4.8    86  -3.7  -6.9  78.4 1014.30     2
2018-02-22 05:28   3.4   4.4    89  -3.7  -6.9  78.5 1014.20     2
2018-02-22 05:26   3.2   4.1    85  -3.7  -6.9  78.6 1014.20     2
2018-02-22 05:24   2.7   3.6    83  -3.7  -6.9  78.7 1014.20     2
2018-02-22 05:22   3.1   3.9    88  -3.7  -6.9  78.8 1014.20     2
2018-02-22 05:20   3.3   4.6    81  -3.8  -6.9  78.9 1014.20     2
2018-02-22 05:18   3.0   4.0    80  -3.8  -6.9  78.9 1014.20     2
2018-02-22 05:16   3.2   4.7    83  -3.8  -6.9  79.0 1014.20     2
2018-02-22 05:14   2.8   4.3    82  -3.8  -6.9  78.9 1014.30     2
2018-02-22 05:12   3.6   4.5    83  -3.8  -7.0  78.7 1014.30     2
2018-02-22 05:10   3.5   4.7    78  -3.8  -7.0  78.8 1014.30     2
2018-02-22 05:08   3.7   5.2    79  -3.8  -7.0  78.7 1014.30     2
2018-02-22 05:06   3.5   4.4    84  -3.8  -7.0  78.7 1014.30     2
2018-02-22 05:04   3.4   4.5    85  -3.8  -7.0  78.8 1014.50     2
2018-02-22 05:02   3.2   4.6    84  -3.9  -7.1  78.8 1014.50     2
2018-02-22 05:00   3.2   4.2    86  -3.9  -7.1  78.7 1014.50     2
2018-02-22 04:58   3.1   3.9    84  -3.9  -7.1  78.5 1014.50     2
2018-02-22 04:56   3.6   4.4    87  -3.9  -7.1  78.6 1014.50     2
2018-02-22 04:54   3.7   4.7    87  -3.9  -7.1  78.5 1014.50     2
2018-02-22 04:52   3.7   4.6    90  -3.9  -7.1  78.4 1014.40     2
2018-02-22 04:50   4.3   5.2    88  -3.9  -7.1  78.4 1014.30     2
2018-02-22 04:48   4.1   5.4    88  -3.9  -7.1  78.4 1014.30     2
2018-02-22 04:46   4.2   4.9    88  -3.9  -7.1  78.4 1014.30     2
2018-02-22 04:44   3.7   4.5    89  -3.9  -7.1  78.4 1014.30     2
2018-02-22 04:42   3.2   4.0    86  -3.9  -7.1  78.5 1014.30     2
2018-02-22 04:40   3.0   4.4    90  -3.9  -7.1  78.7 1014.30     2
2018-02-22 04:38   3.0   3.7    83  -3.9  -7.1  78.7 1014.20     2
2018-02-22 04:36   2.9   4.3    85  -3.9  -7.1  78.8 1014.30     2
2018-02-22 04:34   2.8   4.6    89  -3.9  -7.1  78.8 1014.30     2
2018-02-22 04:32   3.2   4.1    81  -3.9  -7.0  79.0 1014.20     2
2018-02-22 04:30   3.5   5.1    77  -3.9  -7.1  78.5 1014.20     2
2018-02-22 04:28   3.8   4.9    76  -4.0  -7.2  78.6 1014.20     2
2018-02-22 04:26   4.5   5.1    78  -4.0  -7.1  78.8 1014.00     2
2018-02-22 04:24   3.7   5.3    80  -4.0  -7.2  78.5 1014.10     2
2018-02-22 04:22   3.9   5.0    81  -4.0  -7.2  78.5 1014.20     2
2018-02-22 04:20   4.1   5.3    81  -3.9  -7.1  78.7 1014.20     2
2018-02-22 04:18   3.5   4.7    80  -3.9  -7.1  78.5 1014.30     2
2018-02-22 04:16   4.1   5.3    78  -3.9  -7.2  78.2 1014.30     2
2018-02-22 04:14   4.4   5.4    80  -3.9  -7.1  78.4 1014.30     2
2018-02-22 04:12   4.3   5.7    81  -4.0  -7.2  78.6 1014.50     2
2018-02-22 04:10   4.7   6.5    82  -4.0  -7.1  79.0 1014.50     2
2018-02-22 04:08   3.7   6.3    74  -4.0  -7.1  79.2 1014.50     2
2018-02-22 04:06   4.2   5.2    77  -4.0  -7.1  79.1 1014.50     2
2018-02-22 04:04   4.2   5.3    74  -4.0  -7.1  79.0 1014.50     2
2018-02-22 04:02   4.0   5.4    73  -4.1  -7.2  79.2 1014.70     2
2018-02-22 04:00   4.0   5.1    74  -4.1  -7.2  79.1 1014.50     2
2018-02-22 03:58   4.1   5.2    73  -4.1  -7.2  78.9 1014.70     2
2018-02-22 03:56   3.8   5.5    85  -4.1  -7.2  79.1 1014.70     2
2018-02-22 03:54   3.5   4.6    72  -4.1  -7.2  78.9 1014.80     2
2018-02-22 03:52   3.9   5.0    70  -4.1  -7.2  78.9 1014.80     2
2018-02-22 03:50   3.5   4.2    72  -4.1  -7.2  78.8 1014.90     2
2018-02-22 03:48   2.8   3.7    68  -4.0  -7.2  78.6 1014.90     2
2018-02-22 03:46   3.4   4.2    67  -4.0  -7.2  78.7 1014.90     2
2018-02-22 03:44   2.7   4.3    67  -4.0  -7.1  78.9 1015.10     2
2018-02-22 03:42   3.2   4.3    68  -4.0  -7.1  78.8 1015.20     2
2018-02-22 03:40   3.5   4.5    64  -4.0  -7.1  79.1 1015.20     2
2018-02-22 03:38   2.8   3.2    59  -4.0  -7.0  79.4 1015.20     2
2018-02-22 03:36   3.2   4.3    64  -4.1  -7.2  79.2 1015.30     2
2018-02-22 03:34   3.1   4.2    58  -4.1  -7.2  79.3 1015.40     2
2018-02-22 03:32   3.0   3.9    64  -4.1  -7.2  79.3 1015.40     2
2018-02-22 03:30   3.4   4.2    68  -4.2  -7.2  79.6 1015.30     2
2018-02-22 03:28   3.0   3.7    63  -4.2  -7.2  79.8 1015.40     2
2018-02-22 03:26   3.5   4.2    64  -4.2  -7.1  80.3 1015.40     2
2018-02-22 03:24   2.5   3.6    70  -4.2  -7.2  79.9 1015.40     2
2018-02-22 03:22   3.1   4.2    65  -4.2  -7.2  79.7 1015.40     2
2018-02-22 03:20   3.1   3.5    73  -4.2  -7.2  79.8 1015.40     2
2018-02-22 03:18   2.7   3.3    74  -4.2  -7.2  79.9 1015.40     2
2018-02-22 03:16   2.9   4.0    66  -4.2  -7.2  79.7 1015.40     2
2018-02-22 03:14   2.7   3.4    64  -4.2  -7.2  79.8 1015.50     2
2018-02-22 03:12   3.2   3.9    63  -4.3  -7.2  80.0 1015.50     2
2018-02-22 03:10   2.5   3.0    64  -4.3  -7.2  80.3 1015.60     2
2018-02-22 03:08   2.3   3.0    69  -4.3  -7.2  80.2 1015.60     2
2018-02-22 03:06   2.6   3.5    63  -4.3  -7.2  80.1 1015.50     2
2018-02-22 03:04   2.4   3.2    67  -4.3  -7.2  80.1 1015.50     2
2018-02-22 03:02   2.6   3.4    64  -4.3  -7.2  80.4 1015.60     2
2018-02-22 03:00   2.7   3.4    60  -4.3  -7.2  80.5 1015.70     2
2018-02-22 02:58   2.7   3.2    56  -4.3  -7.2  80.2 1015.70     2
2018-02-22 02:56   2.5   3.3    62  -4.3  -7.2  80.2 1015.70     2
2018-02-22 02:54   2.5   3.5    64  -4.4  -7.3  80.2 1015.80     2
2018-02-22 02:52   2.3   3.3    62  -4.4  -7.3  80.4 1015.80     2
2018-02-22 02:50   3.1   3.8    63  -4.4  -7.3  80.4 1015.80     2